sensor_id;sensor_type;location;lat;lon;timestamp;pressure;altitude;pressure_sealevel;temperature;humidity
19797;BME280;10058;57.654;12.044;2023-09-07T00:00:35;102468.78;;;17.69;100.00
19797;BME280;10058;57.654;12.044;2023-09-07T00:03:00;102467.13;;;17.74;100.00
19797;BME280;10058;57.654;12.044;2023-09-07T00:05:26;102468.88;;;17.72;100.00
19797;BME280;10058;57.654;12.044;2023-09-07T00:07:51;102483.47;;;17.86;100.00
19797;BME280;10058;57.654;12.044;2023-09-07T00:10:16;102481.66;;;17.85;100.00
19797;BME280;10058;57.654;12.044;2023-09-07T00:12:43;102474.84;;;17.96;100.00
19797;BME280;10058;57.654;12.044;2023-09-07T00:15:08;102473.94;;;17.96;100.00
19797;BME280;10058;57.654;12.044;2023-09-07T00:17:35;102474.59;;;17.87;100.00
19797;BME280;10058;57.654;12.044;2023-09-07T00:20:01;102474.69;;;17.90;100.00
19797;BME280;10058;57.654;12.044;2023-09-07T00:22:30;102478.28;;;17.92;100.00
19797;BME280;10058;57.654;12.044;2023-09-07T00:24:56;102464.06;;;17.93;100.00
19797;BME280;10058;57.654;12.044;2023-09-07T00:27:21;102475.63;;;17.92;100.00
19797;BME280;10058;57.654;12.044;2023-09-07T00:29:46;102474.06;;;18.02;100.00
19797;BME280;10058;57.654;12.044;2023-09-07T00:32:12;102470.59;;;18.06;100.00
19797;BME280;10058;57.654;12.044;2023-09-07T00:34:37;102467.88;;;18.04;100.00
19797;BME280;10058;57.654;12.044;2023-09-07T00:37:02;102470.47;;;18.00;100.00
19797;BME280;10058;57.654;12.044;2023-09-07T00:39:28;102475.03;;;18.05;100.00
19797;BME280;10058;57.654;12.044;2023-09-07T00:41:53;102470.63;;;18.07;100.00
19797;BME280;10058;57.654;12.044;2023-09-07T00:44:20;102474.19;;;18.06;100.00
19797;BME280;10058;57.654;12.044;2023-09-07T00:46:45;102478.66;;;18.07;100.00
19797;BME280;10058;57.654;12.044;2023-09-07T00:49:12;102469.66;;;18.04;100.00
19797;BME280;10058;57.654;12.044;2023-09-07T00:51:37;102475.34;;;18.18;100.00
19797;BME280;10058;57.654;12.044;2023-09-07T00:54:02;102484.22;;;18.15;100.00
19797;BME280;10058;57.654;12.044;2023-09-07T00:56:28;102468.97;;;18.13;100.00
19797;BME280;10058;57.654;12.044;2023-09-07T00:58:54;102486.19;;;18.24;100.00
19797;BME280;10058;57.654;12.044;2023-09-07T01:01:22;102487.84;;;18.19;100.00
19797;BME280;10058;57.654;12.044;2023-09-07T01:03:47;102484.44;;;18.26;100.00
19797;BME280;10058;57.654;12.044;2023-09-07T01:06:15;102431.31;;;18.05;100.00
19797;BME280;10058;57.654;12.044;2023-09-07T01:08:46;102485.56;;;18.34;100.00
19797;BME280;10058;57.654;12.044;2023-09-07T01:11:19;102490.19;;;18.42;100.00
19797;BME280;10058;57.654;12.044;2023-09-07T01:13:51;102483.06;;;18.43;100.00
19797;BME280;10058;57.654;12.044;2023-09-07T01:16:21;102482.06;;;18.38;100.00
19797;BME280;10058;57.654;12.044;2023-09-07T01:18:46;102493.09;;;18.52;100.00
19797;BME280;10058;57.654;12.044;2023-09-07T01:21:13;102486.94;;;18.57;100.00
19797;BME280;10058;57.654;12.044;2023-09-07T01:23:40;102492.16;;;18.50;100.00
19797;BME280;10058;57.654;12.044;2023-09-07T01:26:07;102499.22;;;18.46;100.00
19797;BME280;10058;57.654;12.044;2023-09-07T01:28:34;102498.94;;;18.34;100.00
19797;BME280;10058;57.654;12.044;2023-09-07T01:31:00;102499.94;;;18.39;100.00
19797;BME280;10058;57.654;12.044;2023-09-07T01:33:26;102507.84;;;18.33;100.00
19797;BME280;10058;57.654;12.044;2023-09-07T01:35:51;102505.09;;;18.30;100.00
19797;BME280;10058;57.654;12.044;2023-09-07T01:38:16;102500.44;;;18.23;100.00
19797;BME280;10058;57.654;12.044;2023-09-07T01:40:41;102511.06;;;18.20;100.00
19797;BME280;10058;57.654;12.044;2023-09-07T01:43:07;102513.69;;;18.17;100.00
19797;BME280;10058;57.654;12.044;2023-09-07T01:45:32;102514.41;;;18.09;100.00
19797;BME280;10058;57.654;12.044;2023-09-07T01:47:59;102466.34;;;17.78;100.00
19797;BME280;10058;57.654;12.044;2023-09-07T01:50:24;102482.63;;;17.87;100.00
19797;BME280;10058;57.654;12.044;2023-09-07T01:52:51;102527.75;;;18.08;100.00
19797;BME280;10058;57.654;12.044;2023-09-07T01:55:16;102518.56;;;17.97;100.00
19797;BME280;10058;57.654;12.044;2023-09-07T01:57:42;102518.09;;;18.15;100.00
19797;BME280;10058;57.654;12.044;2023-09-07T02:00:08;102534.09;;;18.12;100.00
19797;BME280;10058;57.654;12.044;2023-09-07T02:02:33;102526.75;;;18.04;100.00
19797;BME280;10058;57.654;12.044;2023-09-07T02:04:58;102533.00;;;18.05;100.00
19797;BME280;10058;57.654;12.044;2023-09-07T02:07:24;102532.91;;;18.00;100.00
19797;BME280;10058;57.654;12.044;2023-09-07T02:09:49;102537.25;;;17.95;100.00
19797;BME280;10058;57.654;12.044;2023-09-07T02:12:14;102530.47;;;18.09;100.00
19797;BME280;10058;57.654;12.044;2023-09-07T02:14:40;102542.81;;;18.04;100.00
19797;BME280;10058;57.654;12.044;2023-09-07T02:17:05;102526.84;;;18.07;100.00
19797;BME280;10058;57.654;12.044;2023-09-07T02:19:30;102535.44;;;17.94;100.00
19797;BME280;10058;57.654;12.044;2023-09-07T02:21:55;102537.25;;;17.95;100.00
19797;BME280;10058;57.654;12.044;2023-09-07T02:24:21;102530.28;;;18.03;100.00
19797;BME280;10058;57.654;12.044;2023-09-07T02:26:46;102530.56;;;18.14;100.00
19797;BME280;10058;57.654;12.044;2023-09-07T02:29:12;102535.97;;;18.16;100.00
19797;BME280;10058;57.654;12.044;2023-09-07T02:31:41;102539.59;;;18.18;100.00
19797;BME280;10058;57.654;12.044;2023-09-07T02:34:06;102536.03;;;18.19;100.00
19797;BME280;10058;57.654;12.044;2023-09-07T02:36:33;102530.75;;;18.22;100.00
19797;BME280;10058;57.654;12.044;2023-09-07T02:38:59;102531.69;;;18.24;100.00
19797;BME280;10058;57.654;12.044;2023-09-07T02:41:24;102532.47;;;18.20;100.00
19797;BME280;10058;57.654;12.044;2023-09-07T02:43:50;102514.56;;;18.16;100.00
19797;BME280;10058;57.654;12.044;2023-09-07T02:46:16;102519.97;;;18.19;100.00
19797;BME280;10058;57.654;12.044;2023-09-07T02:48:41;102527.09;;;18.17;100.00
19797;BME280;10058;57.654;12.044;2023-09-07T02:51:07;102517.13;;;18.11;100.00
19797;BME280;10058;57.654;12.044;2023-09-07T02:53:32;102524.00;;;18.00;100.00
19797;BME280;10058;57.654;12.044;2023-09-07T02:55:57;102523.28;;;18.08;100.00
19797;BME280;10058;57.654;12.044;2023-09-07T02:58:23;102527.00;;;18.14;100.00
19797;BME280;10058;57.654;12.044;2023-09-07T03:00:48;102523.00;;;17.96;100.00
19797;BME280;10058;57.654;12.044;2023-09-07T03:03:14;102533.97;;;18.07;100.00
19797;BME280;10058;57.654;12.044;2023-09-07T03:05:40;102523.13;;;18.02;100.00
19797;BME280;10058;57.654;12.044;2023-09-07T03:08:06;102514.09;;;17.97;100.00
19797;BME280;10058;57.654;12.044;2023-09-07T03:10:32;102525.03;;;18.06;100.00
19797;BME280;10058;57.654;12.044;2023-09-07T03:12:57;102530.53;;;18.13;100.00
19797;BME280;10058;57.654;12.044;2023-09-07T03:15:23;102536.47;;;17.99;100.00
19797;BME280;10058;57.654;12.044;2023-09-07T03:17:48;102534.91;;;18.09;100.00
19797;BME280;10058;57.654;12.044;2023-09-07T03:20:13;102541.78;;;17.98;100.00
19797;BME280;10058;57.654;12.044;2023-09-07T03:22:43;102536.38;;;17.96;100.00
19797;BME280;10058;57.654;12.044;2023-09-07T03:25:09;102537.06;;;17.89;100.00
19797;BME280;10058;57.654;12.044;2023-09-07T03:27:35;102533.44;;;17.87;100.00
19797;BME280;10058;57.654;12.044;2023-09-07T03:30:01;102530.91;;;17.92;100.00
19797;BME280;10058;57.654;12.044;2023-09-07T03:32:26;102522.13;;;17.97;100.00
19797;BME280;10058;57.654;12.044;2023-09-07T03:34:57;102521.31;;;18.01;100.00
19797;BME280;10058;57.654;12.044;2023-09-07T03:37:22;102510.63;;;18.01;100.00
19797;BME280;10058;57.654;12.044;2023-09-07T03:39:47;102516.06;;;18.04;100.00
19797;BME280;10058;57.654;12.044;2023-09-07T03:42:12;102505.34;;;18.04;100.00
19797;BME280;10058;57.654;12.044;2023-09-07T03:44:38;102515.22;;;18.07;100.00
19797;BME280;10058;57.654;12.044;2023-09-07T03:47:04;102508.72;;;17.96;100.00
19797;BME280;10058;57.654;12.044;2023-09-07T03:49:30;102510.69;;;18.04;100.00
19797;BME280;10058;57.654;12.044;2023-09-07T03:51:55;102510.69;;;18.04;100.00
19797;BME280;10058;57.654;12.044;2023-09-07T03:54:20;102512.50;;;18.05;100.00
19797;BME280;10058;57.654;12.044;2023-09-07T03:56:45;102504.47;;;18.05;100.00
19797;BME280;10058;57.654;12.044;2023-09-07T03:59:11;102510.06;;;18.15;100.00
19797;BME280;10058;57.654;12.044;2023-09-07T04:01:36;102502.91;;;18.14;100.00
19797;BME280;10058;57.654;12.044;2023-09-07T04:04:01;102500.06;;;18.07;100.00
19797;BME280;10058;57.654;12.044;2023-09-07T04:06:27;102484.75;;;18.00;100.00
19797;BME280;10058;57.654;12.044;2023-09-07T04:08:53;102492.63;;;17.94;100.00
19797;BME280;10058;57.654;12.044;2023-09-07T04:11:18;102487.09;;;17.88;100.00
19797;BME280;10058;57.654;12.044;2023-09-07T04:13:43;102479.84;;;17.84;100.00
19797;BME280;10058;57.654;12.044;2023-09-07T04:16:09;102484.31;;;17.84;100.00
19797;BME280;10058;57.654;12.044;2023-09-07T04:18:34;102484.13;;;17.76;100.00
19797;BME280;10058;57.654;12.044;2023-09-07T04:21:07;102481.97;;;17.63;100.00
19797;BME280;10058;57.654;12.044;2023-09-07T04:23:32;102481.94;;;17.61;100.00
19797;BME280;10058;57.654;12.044;2023-09-07T04:26:10;102472.78;;;17.53;100.00
19797;BME280;10058;57.654;12.044;2023-09-07T04:28:37;102473.47;;;17.45;100.00
19797;BME280;10058;57.654;12.044;2023-09-07T04:31:03;102476.19;;;17.46;100.00
19797;BME280;10058;57.654;12.044;2023-09-07T04:33:34;102477.00;;;17.44;100.00
19797;BME280;10058;57.654;12.044;2023-09-07T04:36:08;102469.75;;;17.39;100.00
19797;BME280;10058;57.654;12.044;2023-09-07T04:38:33;102467.97;;;17.38;100.00
19797;BME280;10058;57.654;12.044;2023-09-07T04:41:08;102471.50;;;17.37;100.00
19797;BME280;10058;57.654;12.044;2023-09-07T04:43:33;102473.22;;;17.35;100.00
19797;BME280;10058;57.654;12.044;2023-09-07T04:45:59;102475.97;;;17.38;100.00
19797;BME280;10058;57.654;12.044;2023-09-07T04:48:24;102473.31;;;17.38;100.00
19797;BME280;10058;57.654;12.044;2023-09-07T04:51:06;102470.72;;;17.42;100.00
19797;BME280;10058;57.654;12.044;2023-09-07T04:53:33;102469.00;;;17.44;100.00
19797;BME280;10058;57.654;12.044;2023-09-07T04:56:00;102478.09;;;17.52;100.00
19797;BME280;10058;57.654;12.044;2023-09-07T04:58:25;102482.69;;;17.56;100.00
19797;BME280;10058;57.654;12.044;2023-09-07T05:00:51;102479.44;;;17.66;100.00
19797;BME280;10058;57.654;12.044;2023-09-07T05:03:17;102475.94;;;17.70;100.00
19797;BME280;10058;57.654;12.044;2023-09-07T05:05:42;102466.91;;;17.65;100.00
19797;BME280;10058;57.654;12.044;2023-09-07T05:08:09;102474.13;;;17.69;100.00
19797;BME280;10058;57.654;12.044;2023-09-07T05:10:34;102478.00;;;17.80;100.00
19797;BME280;10058;57.654;12.044;2023-09-07T05:13:00;102480.84;;;17.88;100.00
19797;BME280;10058;57.654;12.044;2023-09-07T05:15:25;102491.47;;;17.85;100.00
19797;BME280;10058;57.654;12.044;2023-09-07T05:17:54;102484.34;;;17.85;100.00
19797;BME280;10058;57.654;12.044;2023-09-07T05:20:20;102497.69;;;17.82;100.00
19797;BME280;10058;57.654;12.044;2023-09-07T05:22:45;102479.72;;;17.78;100.00
19797;BME280;10058;57.654;12.044;2023-09-07T05:25:11;102490.34;;;17.75;100.00
19797;BME280;10058;57.654;12.044;2023-09-07T05:27:36;102494.13;;;17.83;100.00
19797;BME280;10058;57.654;12.044;2023-09-07T05:30:02;102499.41;;;17.80;100.00
19797;BME280;10058;57.654;12.044;2023-09-07T05:32:28;102484.44;;;17.88;100.00
19797;BME280;10058;57.654;12.044;2023-09-07T05:34:53;102494.25;;;17.89;100.00
19797;BME280;10058;57.654;12.044;2023-09-07T05:37:18;102491.41;;;17.82;100.00
19797;BME280;10058;57.654;12.044;2023-09-07T05:39:43;102487.19;;;17.91;100.00
19797;BME280;10058;57.654;12.044;2023-09-07T05:42:09;102486.97;;;17.82;100.00
19797;BME280;10058;57.654;12.044;2023-09-07T05:44:34;102479.72;;;17.78;100.00
19797;BME280;10058;57.654;12.044;2023-09-07T05:46:59;102486.72;;;17.73;100.00
19797;BME280;10058;57.654;12.044;2023-09-07T05:49:25;102490.00;;;17.63;100.00
19797;BME280;10058;57.654;12.044;2023-09-07T05:51:50;102488.09;;;17.59;100.00
19797;BME280;10058;57.654;12.044;2023-09-07T05:54:15;102494.41;;;17.61;100.00
19797;BME280;10058;57.654;12.044;2023-09-07T05:56:41;102486.22;;;17.55;100.00
19797;BME280;10058;57.654;12.044;2023-09-07T05:59:06;102477.41;;;17.59;100.00
19797;BME280;10058;57.654;12.044;2023-09-07T06:01:31;102493.88;;;17.74;100.00
19797;BME280;10058;57.654;12.044;2023-09-07T06:03:57;102490.66;;;17.87;100.00
19797;BME280;10058;57.654;12.044;2023-09-07T06:06:23;102490.00;;;17.96;100.00
19797;BME280;10058;57.654;12.044;2023-09-07T06:08:48;102488.78;;;17.83;100.00
19797;BME280;10058;57.654;12.044;2023-09-07T06:11:14;102497.03;;;17.92;100.00
19797;BME280;10058;57.654;12.044;2023-09-07T06:13:39;102498.78;;;17.92;100.00
19797;BME280;10058;57.654;12.044;2023-09-07T06:16:04;102487.19;;;17.91;100.00
19797;BME280;10058;57.654;12.044;2023-09-07T06:18:30;102496.25;;;17.96;100.00
19797;BME280;10058;57.654;12.044;2023-09-07T06:20:55;102492.78;;;18.02;100.00
19797;BME280;10058;57.654;12.044;2023-09-07T06:23:21;102472.78;;;17.86;100.00
19797;BME280;10058;57.654;12.044;2023-09-07T06:25:46;102473.97;;;17.97;100.00
19797;BME280;10058;57.654;12.044;2023-09-07T06:28:11;102478.22;;;17.89;100.00
19797;BME280;10058;57.654;12.044;2023-09-07T06:30:36;102473.00;;;17.94;100.00
19797;BME280;10058;57.654;12.044;2023-09-07T06:33:02;102467.75;;;17.98;100.00
19797;BME280;10058;57.654;12.044;2023-09-07T06:35:27;102475.63;;;17.92;100.00
19797;BME280;10058;57.654;12.044;2023-09-07T06:37:52;102474.75;;;17.93;100.00
19797;BME280;10058;57.654;12.044;2023-09-07T06:40:18;102477.09;;;17.80;100.00
19797;BME280;10058;57.654;12.044;2023-09-07T06:42:44;102485.38;;;17.90;100.00
19797;BME280;10058;57.654;12.044;2023-09-07T06:45:09;102478.28;;;17.92;100.00
19797;BME280;10058;57.654;12.044;2023-09-07T06:47:35;102464.97;;;17.94;100.00
19797;BME280;10058;57.654;12.044;2023-09-07T06:50:00;102467.81;;;18.01;100.00
19797;BME280;10058;57.654;12.044;2023-09-07T06:52:25;102467.06;;;18.07;100.00
19797;BME280;10058;57.654;12.044;2023-09-07T06:54:52;102467.78;;;18.00;100.00
19797;BME280;10058;57.654;12.044;2023-09-07T06:57:18;102471.28;;;17.97;100.00
19797;BME280;10058;57.654;12.044;2023-09-07T06:59:43;102467.09;;;18.08;100.00
19797;BME280;10058;57.654;12.044;2023-09-07T07:02:08;102437.13;;;17.87;100.00
19797;BME280;10058;57.654;12.044;2023-09-07T07:04:34;102447.19;;;17.96;100.00
19797;BME280;10058;57.654;12.044;2023-09-07T07:07:00;102464.25;;;18.02;100.00
19797;BME280;10058;57.654;12.044;2023-09-07T07:09:29;102463.31;;;17.99;100.00
19797;BME280;10058;57.654;12.044;2023-09-07T07:11:54;102472.28;;;18.02;100.00
19797;BME280;10058;57.654;12.044;2023-09-07T07:14:20;102466.44;;;18.19;100.00
19797;BME280;10058;57.654;12.044;2023-09-07T07:16:45;102463.03;;;18.26;100.00
19797;BME280;10058;57.654;12.044;2023-09-07T07:19:10;102450.16;;;18.09;100.00
19797;BME280;10058;57.654;12.044;2023-09-07T07:21:36;102448.19;;;18.02;100.00
19797;BME280;10058;57.654;12.044;2023-09-07T07:24:01;102449.41;;;18.15;100.00
19797;BME280;10058;57.654;12.044;2023-09-07T07:26:26;102445.72;;;18.10;100.00
19797;BME280;10058;57.654;12.044;2023-09-07T07:28:52;102421.41;;;17.99;100.00
19797;BME280;10058;57.654;12.044;2023-09-07T07:31:17;102438.78;;;18.18;100.00
19797;BME280;10058;57.654;12.044;2023-09-07T07:33:42;102452.47;;;18.32;100.00
19797;BME280;10058;57.654;12.044;2023-09-07T07:36:08;102445.09;;;18.22;100.00
19797;BME280;10058;57.654;12.044;2023-09-07T07:38:34;102438.91;;;18.24;100.00
19797;BME280;10058;57.654;12.044;2023-09-07T07:41:00;102450.53;;;18.25;100.00
19797;BME280;10058;57.654;12.044;2023-09-07T07:43:26;102446.22;;;18.31;100.00
19797;BME280;10058;57.654;12.044;2023-09-07T07:45:53;102456.50;;;18.52;100.00
19797;BME280;10058;57.654;12.044;2023-09-07T07:48:19;102442.22;;;18.53;100.00
19797;BME280;10058;57.654;12.044;2023-09-07T07:50:44;102437.75;;;18.52;100.00
19797;BME280;10058;57.654;12.044;2023-09-07T07:53:09;102436.59;;;18.41;100.00
19797;BME280;10058;57.654;12.044;2023-09-07T07:55:36;102438.41;;;18.42;100.00
19797;BME280;10058;57.654;12.044;2023-09-07T07:58:05;102378.84;;;18.12;100.00
19797;BME280;10058;57.654;12.044;2023-09-07T08:00:33;102427.72;;;18.42;100.00
19797;BME280;10058;57.654;12.044;2023-09-07T08:02:59;102437.63;;;18.46;100.00
19797;BME280;10058;57.654;12.044;2023-09-07T08:05:24;102428.22;;;18.63;100.00
19797;BME280;10058;57.654;12.044;2023-09-07T08:07:49;102432.06;;;18.77;100.00
19797;BME280;10058;57.654;12.044;2023-09-07T08:10:18;102435.31;;;18.61;100.00
19797;BME280;10058;57.654;12.044;2023-09-07T08:12:44;102445.56;;;18.82;100.00
19797;BME280;10058;57.654;12.044;2023-09-07T08:15:09;102439.22;;;18.78;100.00
19797;BME280;10058;57.654;12.044;2023-09-07T08:17:35;102426.31;;;18.59;100.00
19797;BME280;10058;57.654;12.044;2023-09-07T08:20:00;102408.81;;;18.76;100.00
19797;BME280;10058;57.654;12.044;2023-09-07T08:22:26;102412.69;;;18.91;100.00
19797;BME280;10058;57.654;12.044;2023-09-07T08:24:52;102416.34;;;18.96;100.00
19797;BME280;10058;57.654;12.044;2023-09-07T08:27:19;102412.59;;;18.88;100.00
19797;BME280;10058;57.654;12.044;2023-09-07T08:29:45;102419.59;;;18.80;100.00
19797;BME280;10058;57.654;12.044;2023-09-07T08:32:16;102422.84;;;18.63;100.00
19797;BME280;10058;57.654;12.044;2023-09-07T08:34:41;102423.00;;;18.69;100.00
19797;BME280;10058;57.654;12.044;2023-09-07T08:37:07;102439.31;;;18.82;100.00
19797;BME280;10058;57.654;12.044;2023-09-07T08:39:36;102432.38;;;18.93;100.00
19797;BME280;10058;57.654;12.044;2023-09-07T08:42:02;102424.59;;;19.06;100.00
19797;BME280;10058;57.654;12.044;2023-09-07T08:44:29;102366.72;;;18.71;100.00
19797;BME280;10058;57.654;12.044;2023-09-07T08:46:55;102421.78;;;18.99;100.00
19797;BME280;10058;57.654;12.044;2023-09-07T08:49:20;102428.16;;;19.07;100.00
19797;BME280;10058;57.654;12.044;2023-09-07T08:51:46;102416.34;;;18.96;100.00
19797;BME280;10058;57.654;12.044;2023-09-07T08:54:12;102404.72;;;18.95;100.00
19797;BME280;10058;57.654;12.044;2023-09-07T08:56:38;102409.47;;;19.10;100.00
19797;BME280;10058;57.654;12.044;2023-09-07T08:59:03;102402.25;;;19.06;100.00
19797;BME280;10058;57.654;12.044;2023-09-07T09:01:29;102403.47;;;19.22;100.00
19797;BME280;10058;57.654;12.044;2023-09-07T09:03:56;102399.03;;;19.25;100.00
19797;BME280;10058;57.654;12.044;2023-09-07T09:06:22;102390.06;;;19.23;100.00
19797;BME280;10058;57.654;12.044;2023-09-07T09:08:48;102384.81;;;19.29;100.00
19797;BME280;10058;57.654;12.044;2023-09-07T09:11:20;102397.47;;;19.39;100.00
19797;BME280;10058;57.654;12.044;2023-09-07T09:13:46;102391.28;;;19.42;100.00
19797;BME280;10058;57.654;12.044;2023-09-07T09:16:12;102395.78;;;19.44;100.00
19797;BME280;10058;57.654;12.044;2023-09-07T09:18:38;102394.25;;;19.57;100.00
19797;BME280;10058;57.654;12.044;2023-09-07T09:21:04;102380.84;;;19.57;100.00
19797;BME280;10058;57.654;12.044;2023-09-07T09:23:37;102362.28;;;19.71;100.00
19797;BME280;10058;57.654;12.044;2023-09-07T09:26:03;102363.88;;;19.60;100.00
19797;BME280;10058;57.654;12.044;2023-09-07T09:28:31;102373.22;;;19.83;100.00
19797;BME280;10058;57.654;12.044;2023-09-07T09:30:58;102373.16;;;19.80;100.00
19797;BME280;10058;57.654;12.044;2023-09-07T09:33:25;102362.53;;;19.86;100.00
19797;BME280;10058;57.654;12.044;2023-09-07T09:35:55;102365.06;;;19.78;100.00
19797;BME280;10058;57.654;12.044;2023-09-07T09:38:21;102361.72;;;19.93;100.00
19797;BME280;10058;57.654;12.044;2023-09-07T09:40:47;102349.41;;;20.07;100.00
19797;BME280;10058;57.654;12.044;2023-09-07T09:43:13;102355.69;;;20.09;100.00
19797;BME280;10058;57.654;12.044;2023-09-07T09:45:38;102348.53;;;20.11;100.00
19797;BME280;10058;57.654;12.044;2023-09-07T09:48:05;102353.50;;;20.43;100.00
19797;BME280;10058;57.654;12.044;2023-09-07T09:50:31;102345.41;;;20.40;100.00
19797;BME280;10058;57.654;12.044;2023-09-07T09:52:57;102322.16;;;20.45;100.00
19797;BME280;10058;57.654;12.044;2023-09-07T09:55:23;102309.91;;;20.71;100.00
19797;BME280;10058;57.654;12.044;2023-09-07T09:57:48;102253.78;;;21.03;100.00
19797;BME280;10058;57.654;12.044;2023-09-07T10:00:15;102262.94;;;21.24;100.00
19797;BME280;10058;57.654;12.044;2023-09-07T10:03:31;102247.50;;;21.04;100.00
19797;BME280;10058;57.654;12.044;2023-09-07T10:06:19;102239.38;;;20.95;100.00
19797;BME280;10058;57.654;12.044;2023-09-07T10:09:07;102235.84;;;21.02;100.00
19797;BME280;10058;57.654;12.044;2023-09-07T10:11:37;102236.81;;;21.12;100.00
19797;BME280;10058;57.654;12.044;2023-09-07T10:14:04;102233.50;;;21.46;100.00
19797;BME280;10058;57.654;12.044;2023-09-07T10:16:48;102204.56;;;21.18;100.00
19797;BME280;10058;57.654;12.044;2023-09-07T10:19:21;102223.00;;;22.01;100.00
19797;BME280;10058;57.654;12.044;2023-09-07T10:21:47;102219.47;;;22.11;100.00
19797;BME280;10058;57.654;12.044;2023-09-07T10:24:33;102221.16;;;21.91;100.00
19797;BME280;10058;57.654;12.044;2023-09-07T10:27:02;102223.69;;;21.59;100.00
19797;BME280;10058;57.654;12.044;2023-09-07T10:29:27;102230.72;;;21.34;100.00
19797;BME280;10058;57.654;12.044;2023-09-07T10:31:53;102229.03;;;21.47;100.00
19797;BME280;10058;57.654;12.044;2023-09-07T10:34:18;102226.25;;;21.36;100.00
19797;BME280;10058;57.654;12.044;2023-09-07T10:36:43;102220.81;;;21.27;100.00
19797;BME280;10058;57.654;12.044;2023-09-07T10:39:08;102229.81;;;21.29;100.00
19797;BME280;10058;57.654;12.044;2023-09-07T10:41:41;102228.91;;;21.33;100.00
19797;BME280;10058;57.654;12.044;2023-09-07T10:44:07;102226.28;;;21.39;100.00
19797;BME280;10058;57.654;12.044;2023-09-07T10:46:32;102226.22;;;21.27;100.00
19797;BME280;10058;57.654;12.044;2023-09-07T10:48:57;102234.22;;;21.21;100.00
19797;BME280;10058;57.654;12.044;2023-09-07T10:51:22;102237.06;;;21.48;100.00
19797;BME280;10058;57.654;12.044;2023-09-07T10:53:48;102227.19;;;21.43;100.00
19797;BME280;10058;57.654;12.044;2023-09-07T10:56:13;102215.63;;;21.61;100.00
19797;BME280;10058;57.654;12.044;2023-09-07T10:58:39;102221.19;;;21.94;100.00
19797;BME280;10058;57.654;12.044;2023-09-07T11:01:06;102206.97;;;22.47;100.00
19797;BME280;10058;57.654;12.044;2023-09-07T11:03:32;102196.22;;;22.50;100.00
19797;BME280;10058;57.654;12.044;2023-09-07T11:08:28;102198.69;;;21.86;100.00
19797;BME280;10058;57.654;12.044;2023-09-07T11:10:54;102209.44;;;21.84;100.00
19797;BME280;10058;57.654;12.044;2023-09-07T11:13:19;102205.09;;;22.06;100.00
19797;BME280;10058;57.654;12.044;2023-09-07T11:15:44;102192.53;;;22.11;100.00
19797;BME280;10058;57.654;12.044;2023-09-07T11:18:10;102186.97;;;21.64;100.00
19797;BME280;10058;57.654;12.044;2023-09-07T11:20:35;102192.53;;;22.11;100.00
19797;BME280;10058;57.654;12.044;2023-09-07T11:23:01;102174.56;;;22.04;100.00
19797;BME280;10058;57.654;12.044;2023-09-07T11:25:26;102160.25;;;22.39;100.00
19797;BME280;10058;57.654;12.044;2023-09-07T11:27:52;102154.88;;;22.75;100.00
19797;BME280;10058;57.654;12.044;2023-09-07T11:30:23;102151.28;;;22.88;100.00
19797;BME280;10058;57.654;12.044;2023-09-07T11:32:49;102153.97;;;22.76;100.00
19797;BME280;10058;57.654;12.044;2023-09-07T11:35:14;102147.69;;;22.71;100.00
19797;BME280;10058;57.654;12.044;2023-09-07T11:37:39;102134.22;;;22.86;100.00
19797;BME280;10058;57.654;12.044;2023-09-07T11:40:05;102127.03;;;22.93;100.00
19797;BME280;10058;57.654;12.044;2023-09-07T11:42:37;102130.59;;;23.09;100.00
19797;BME280;10058;57.654;12.044;2023-09-07T11:45:02;102126.13;;;22.86;100.00
19797;BME280;10058;57.654;12.044;2023-09-07T11:47:27;102127.91;;;22.54;100.00
19797;BME280;10058;57.654;12.044;2023-09-07T11:49:53;102109.97;;;22.56;100.00
19797;BME280;10058;57.654;12.044;2023-09-07T11:52:18;102108.16;;;22.76;100.00
19797;BME280;10058;57.654;12.044;2023-09-07T11:54:43;102103.66;;;22.94;100.00
19797;BME280;10058;57.654;12.044;2023-09-07T11:57:09;102109.00;;;23.13;100.00
19797;BME280;10058;57.654;12.044;2023-09-07T11:59:34;102102.72;;;23.16;100.00
19797;BME280;10058;57.654;12.044;2023-09-07T12:01:59;102106.25;;;23.30;100.00
19797;BME280;10058;57.654;12.044;2023-09-07T12:04:24;102104.47;;;23.23;100.00
19797;BME280;10058;57.654;12.044;2023-09-07T12:06:49;102090.97;;;23.23;100.00
19797;BME280;10058;57.654;12.044;2023-09-07T12:09:15;102090.97;;;23.26;100.00
19797;BME280;10058;57.654;12.044;2023-09-07T12:11:42;102086.44;;;23.36;100.00
19797;BME280;10058;57.654;12.044;2023-09-07T12:14:08;102086.47;;;23.34;100.00
19797;BME280;10058;57.654;12.044;2023-09-07T12:16:33;102082.75;;;23.56;100.00
19797;BME280;10058;57.654;12.044;2023-09-07T12:18:59;102090.00;;;23.42;100.00
19797;BME280;10058;57.654;12.044;2023-09-07T12:21:24;102076.50;;;23.51;100.00
19797;BME280;10058;57.654;12.044;2023-09-07T12:23:49;102080.09;;;23.40;100.00
19797;BME280;10058;57.654;12.044;2023-09-07T12:26:14;102064.81;;;23.52;100.00
19797;BME280;10058;57.654;12.044;2023-09-07T12:28:41;102070.13;;;23.68;100.00